首页
METAR-TAF:

METAR-TAF

机场 :

安東尼奧·汪帕特國際機場

阿加尼亚, 關島, 美国

纬度: 13-29N, 经度: 144-48E, 海拔: 91米

当前天气观测

该预报发布于49分钟前的08:54 UTC
风速5节,风向东转东南
温度 28°C
湿度 79%
气压 1012 hPa
能見度: 16.1公里
少量云层高于1900英尺
散云层高于3600英尺

METAR: PGUM 150854Z 11005KT 10SM FEW019 SCT036 28/24 A2987 RMK AO2 SLP105 60000 T02780244 53017 $

时间: 19:43 (09:43 UTC)

预报

该预报发布于3小时和56分钟前的05:47 UTC
预报有效从15日的 06点(UTC)到 16日的 12点(UTC)
风速7节,风向东转东南
能見度: 10公里
少量云层高于2000英尺
散云层高于5000英尺
附近有阵雨

TAF: PGUM 150547Z 1506/1612 12007KT P6SM VCSH FEW020 SCT050

超过4000个机场的气象观测和天气预报(METAR&TAF报告)。

可查询的气象台以黄色和红色小点在地图上表示。

将鼠标移到小点上方,可查看气象台名称。

然后点击查看天气观测和预报。

如需切换地图:点击带黑十字的绿色按钮放大地图;点击带横线的绿色按钮缩小地图;或者点击绿色箭头查看邻近地区的地图。


METAR-TAF: